Time;durP1;ratioP1;P1;durP2;ratioP2;P2;SDS_P1;SDS_P2;PMS_P1;PMS_P2;Temp;Humidity;BMP_temperature;BMP_pressure;BME280_temperature;BME280_humidity;BME280_pressure;Samples;Min_cycle;Max_cycle;Signal;HPM_P1;HPM_P2
2021/05/30 00:02:18;;;;;;;6.80;3.70;;;12.50;76.70;;;;;;5011299;28;20560;-85
2021/05/30 00:04:44;;;;;;;7.10;3.95;;;12.50;76.20;;;;;;4994292;28;20170;-85
2021/05/30 00:07:10;;;;;;;5.80;3.40;;;12.50;76.20;;;;;;4994427;28;20189;-85
2021/05/30 00:09:38;;;;;;;6.95;3.60;;;12.50;76.60;;;;;;4994415;28;20643;-85
2021/05/30 00:12:08;;;;;;;6.05;3.90;;;12.50;77.30;;;;;;4994456;28;20207;-85
2021/05/30 00:14:34;;;;;;;9.63;3.97;;;12.40;76.90;;;;;;4994280;28;20171;-85
2021/05/30 00:17:00;;;;;;;6.77;3.67;;;12.40;78.00;;;;;;4995116;28;20540;-84
2021/05/30 00:19:26;;;;;;;6.43;3.43;;;12.40;78.30;;;;;;4994313;28;20442;-84
2021/05/30 00:21:52;;;;;;;5.55;3.42;;;12.30;77.80;;;;;;4994230;28;20444;-84
2021/05/30 00:24:18;;;;;;;7.38;3.63;;;12.30;78.30;;;;;;4994569;28;20550;-84
2021/05/30 00:26:44;;;;;;;8.10;4.05;;;12.30;77.80;;;;;;4994187;28;20174;-84
2021/05/30 00:29:10;;;;;;;5.30;3.00;;;12.20;78.70;;;;;;4994631;28;20715;-85
2021/05/30 00:31:36;;;;;;;4.93;3.23;;;12.10;78.70;;;;;;4994038;28;20472;-85
2021/05/30 00:34:02;;;;;;;7.37;3.40;;;12.10;78.70;;;;;;4994103;28;20513;-85
2021/05/30 00:36:28;;;;;;;10.93;3.65;;;12.10;79.20;;;;;;4994133;28;20803;-85
2021/05/30 00:38:54;;;;;;;3.97;2.97;;;12.00;79.20;;;;;;4994341;28;20182;-85
2021/05/30 00:41:20;;;;;;;7.32;4.28;;;12.00;79.60;;;;;;4993889;28;20206;-85
2021/05/30 00:43:48;;;;;;;7.65;3.65;;;12.00;79.90;;;;;;4994213;28;20206;-85
2021/05/30 00:46:15;;;;;;;10.20;3.88;;;11.90;79.50;;;;;;4994050;28;20185;-85
2021/05/30 00:48:41;;;;;;;5.38;3.17;;;11.90;80.30;;;;;;4993686;28;20182;-84
2021/05/30 00:51:07;;;;;;;8.10;3.85;;;11.80;80.60;;;;;;4992537;28;20225;-85
2021/05/30 00:53:34;;;;;;;9.35;3.10;;;11.80;80.60;;;;;;4994013;28;20166;-84
2021/05/30 00:56:04;;;;;;;8.50;4.10;;;11.70;80.80;;;;;;4993610;28;20178;-85
2021/05/30 00:58:30;;;;;;;8.18;3.38;;;11.70;81.30;;;;;;4993937;28;20633;-85
2021/05/30 01:00:56;;;;;;;7.83;4.27;;;11.60;81.90;;;;;;4993422;28;20195;-85
2021/05/30 01:03:21;;;;;;;7.17;4.10;;;11.60;81.90;;;;;;4993751;28;20520;-85
2021/05/30 01:05:48;;;;;;;9.93;3.87;;;11.50;81.60;;;;;;4994242;28;20231;-85
2021/05/30 01:08:17;;;;;;;6.75;3.80;;;11.50;81.40;;;;;;4993440;28;20444;-84
2021/05/30 01:10:46;;;;;;;6.63;3.80;;;11.50;82.10;;;;;;4993148;28;20209;-85
2021/05/30 01:13:13;;;;;;;11.73;4.22;;;11.50;82.40;;;;;;4994076;28;20264;-84
2021/05/30 01:15:41;;;;;;;8.68;4.50;;;11.40;82.70;;;;;;4994018;28;20182;-85
2021/05/30 01:18:07;;;;;;;10.93;5.13;;;11.40;83.50;;;;;;4993913;28;20250;-85
2021/05/30 01:20:33;;;;;;;6.35;4.60;;;11.30;83.90;;;;;;4993855;28;20178;-84
2021/05/30 01:23:11;;;;;;;8.63;3.95;;;11.30;84.10;;;;;;4993719;28;20178;-84
2021/05/30 01:25:36;;;;;;;5.40;4.07;;;11.30;83.70;;;;;;4994492;28;20174;-84
2021/05/30 01:28:04;;;;;;;9.55;4.57;;;11.30;84.10;;;;;;4993871;28;20189;-85
2021/05/30 01:30:30;;;;;;;8.85;3.97;;;11.30;83.90;;;;;;4994090;28;20232;-85
2021/05/30 01:32:56;;;;;;;7.45;4.03;;;11.30;84.40;;;;;;4994037;28;20261;-85
2021/05/30 01:35:22;;;;;;;6.70;4.50;;;11.30;83.50;;;;;;4993831;28;20213;-85
2021/05/30 01:37:51;;;;;;;8.37;4.30;;;11.30;83.40;;;;;;5011695;28;20834;-85
2021/05/30 01:40:18;;;;;;;6.85;4.10;;;11.20;84.40;;;;;;4994117;28;20643;-85
2021/05/30 01:42:45;;;;;;;5.85;3.50;;;11.20;85.10;;;;;;4994241;28;20204;-85
2021/05/30 01:45:12;;;;;;;11.75;5.00;;;11.10;85.50;;;;;;4993787;28;20698;-85
2021/05/30 01:47:40;;;;;;;8.57;5.20;;;11.10;85.50;;;;;;4993464;28;20175;-85
2021/05/30 01:50:15;;;;;;;10.95;4.60;;;11.00;85.90;;;;;;4993398;28;20202;-85
2021/05/30 01:52:41;;;;;;;8.90;4.55;;;11.00;85.60;;;;;;4993457;28;20205;-85
2021/05/30 01:55:16;;;;;;;8.15;4.90;;;11.00;86.30;;;;;;4993279;28;20182;-85
2021/05/30 01:57:48;;;;;;;12.73;5.18;;;11.00;86.60;;;;;;4994180;28;20167;-85
2021/05/30 02:00:15;;;;;;;7.80;4.05;;;11.00;86.30;;;;;;4994940;28;20182;-84
2021/05/30 02:02:47;;;;;;;11.27;4.90;;;11.00;86.60;;;;;;4995348;28;20255;-85
2021/05/30 02:05:13;;;;;;;6.60;4.35;;;10.90;87.00;;;;;;4998543;28;20187;-84
2021/05/30 02:07:40;;;;;;;9.02;4.70;;;10.90;87.00;;;;;;4997548;28;20175;-85
2021/05/30 02:10:13;;;;;;;7.82;4.43;;;10.90;87.10;;;;;;4997422;28;20206;-85
2021/05/30 02:12:39;;;;;;;11.02;5.63;;;10.90;87.40;;;;;;4997505;28;20572;-85
2021/05/30 02:15:07;;;;;;;9.68;4.82;;;10.90;87.10;;;;;;4998139;28;20592;-85
2021/05/30 02:17:35;;;;;;;9.30;4.50;;;10.90;86.30;;;;;;4998061;28;20519;-85
2021/05/30 02:20:02;;;;;;;5.53;3.80;;;10.90;86.40;;;;;;4998208;28;20181;-85
2021/05/30 02:22:27;;;;;;;12.15;5.00;;;10.80;87.30;;;;;;4997543;28;20191;-85
2021/05/30 02:24:53;;;;;;;8.53;5.00;;;10.80;87.40;;;;;;4997481;28;20178;-85
2021/05/30 02:27:19;;;;;;;6.27;4.23;;;10.70;87.80;;;;;;4997730;28;20456;-85
2021/05/30 02:29:46;;;;;;;9.50;4.53;;;10.80;87.60;;;;;;4996877;28;20424;-84
2021/05/30 02:32:13;;;;;;;9.70;4.75;;;10.80;87.40;;;;;;4996895;28;20460;-84
2021/05/30 02:34:42;;;;;;;9.20;4.25;;;10.70;87.70;;;;;;4997425;28;20167;-85
2021/05/30 02:37:14;;;;;;;11.60;4.53;;;10.70;87.80;;;;;;4997257;28;20226;-85
2021/05/30 02:39:40;;;;;;;7.93;4.28;;;10.70;87.40;;;;;;4997571;28;20175;-85
2021/05/30 02:42:07;;;;;;;6.93;4.10;;;10.60;87.60;;;;;;4998038;28;20571;-84
2021/05/30 02:44:33;;;;;;;6.93;4.10;;;10.60;88.10;;;;;;4998296;28;20171;-84
2021/05/30 02:46:59;;;;;;;12.45;5.80;;;10.60;88.30;;;;;;4997710;28;20228;-84
2021/05/30 02:49:25;;;;;;;6.97;4.40;;;10.50;88.40;;;;;;4997775;28;20167;-85
2021/05/30 02:51:52;;;;;;;7.40;4.60;;;10.50;88.40;;;;;;4997464;28;20472;-85
2021/05/30 02:54:18;;;;;;;8.48;5.30;;;10.50;88.50;;;;;;4997588;28;20175;-85
2021/05/30 02:56:44;;;;;;;5.30;3.87;;;10.50;88.80;;;;;;4997550;28;20167;-85
2021/05/30 02:59:10;;;;;;;6.77;4.13;;;10.50;88.90;;;;;;4997592;28;20414;-85
2021/05/30 03:01:36;;;;;;;12.25;5.03;;;10.50;89.40;;;;;;4997158;28;20533;-84
2021/05/30 03:04:02;;;;;;;6.68;4.53;;;10.50;89.50;;;;;;4998553;28;20206;-84
2021/05/30 03:06:28;;;;;;;13.43;5.10;;;10.50;89.20;;;;;;4998938;28;20206;-85
2021/05/30 03:08:53;;;;;;;6.07;4.13;;;10.50;89.40;;;;;;4997775;28;20440;-85
2021/05/30 03:11:20;;;;;;;11.03;5.30;;;10.40;89.80;;;;;;4996538;28;20210;-85
2021/05/30 03:13:50;;;;;;;11.30;5.28;;;10.40;90.10;;;;;;4996374;28;20417;-84
2021/05/30 03:16:15;;;;;;;13.27;4.63;;;10.40;90.10;;;;;;4996025;28;20171;-84
2021/05/30 03:18:41;;;;;;;9.47;4.33;;;10.40;90.30;;;;;;4996419;28;20182;-85
2021/05/30 03:21:07;;;;;;;11.20;5.53;;;10.40;90.40;;;;;;4995966;28;20434;-85
2021/05/30 03:23:33;;;;;;;9.57;5.10;;;10.40;90.40;;;;;;4996405;28;20422;-85
2021/05/30 03:25:59;;;;;;;11.80;5.20;;;10.40;90.20;;;;;;4996581;28;20467;-85
2021/05/30 03:28:24;;;;;;;8.67;4.33;;;10.30;89.90;;;;;;4996753;28;20452;-85
2021/05/30 03:30:51;;;;;;;9.33;5.23;;;10.30;90.40;;;;;;5013514;28;20754;-85
2021/05/30 03:33:17;;;;;;;8.13;4.25;;;10.30;90.50;;;;;;4997114;28;20478;-85
2021/05/30 03:35:44;;;;;;;14.32;5.07;;;10.30;90.20;;;;;;4997159;28;20217;-84
2021/05/30 03:38:12;;;;;;;8.82;5.07;;;10.30;89.80;;;;;;4997103;28;20705;-85
2021/05/30 03:40:50;;;;;;;12.95;5.25;;;10.30;90.20;;;;;;4996550;28;20219;-84
2021/05/30 03:43:16;;;;;;;8.80;4.28;;;10.30;90.50;;;;;;4997883;28;20171;-85
2021/05/30 03:45:42;;;;;;;14.63;4.28;;;10.30;90.60;;;;;;4999314;28;20179;-84
2021/05/30 03:48:08;;;;;;;5.55;4.32;;;10.20;90.80;;;;;;4998732;28;20193;-85
2021/05/30 03:50:35;;;;;;;7.90;4.72;;;10.30;90.90;;;;;;4998510;28;20226;-85
2021/05/30 03:53:02;;;;;;;10.10;4.72;;;10.20;90.60;;;;;;4998177;28;20170;-84
2021/05/30 03:55:28;;;;;;;9.32;4.88;;;10.20;90.50;;;;;;4997751;28;20178;-85
2021/05/30 03:57:54;;;;;;;8.70;6.00;;;10.20;90.80;;;;;;4999318;28;20175;-85
2021/05/30 04:00:21;;;;;;;8.20;4.65;;;10.20;90.80;;;;;;4998551;28;20418;-85
2021/05/30 04:02:47;;;;;;;7.60;4.28;;;10.20;90.90;;;;;;4995768;28;20171;-85
2021/05/30 04:05:15;;;;;;;11.73;4.15;;;10.20;90.30;;;;;;4995969;28;20175;-85
2021/05/30 04:07:41;;;;;;;9.93;4.47;;;10.20;90.10;;;;;;5012422;28;20540;-85
2021/05/30 04:10:12;;;;;;;8.18;4.43;;;10.20;90.30;;;;;;4993985;28;20202;-85
2021/05/30 04:12:39;;;;;;;7.78;4.80;;;10.20;91.00;;;;;;4994123;28;20206;-85
2021/05/30 04:15:07;;;;;;;9.23;4.35;;;10.20;90.90;;;;;;4993981;28;20181;-85
2021/05/30 04:17:33;;;;;;;12.38;4.47;;;10.20;91.10;;;;;;4994104;28;20277;-85
2021/05/30 04:19:59;;;;;;;7.90;4.97;;;10.30;91.00;;;;;;4993734;28;20201;-85
2021/05/30 04:22:25;;;;;;;10.50;4.82;;;10.20;91.00;;;;;;4994560;28;20198;-84
2021/05/30 04:24:51;;;;;;;8.27;3.70;;;10.20;90.60;;;;;;4994119;28;20178;-84
2021/05/30 04:27:17;;;;;;;6.90;4.00;;;10.20;90.50;;;;;;4994641;28;20786;-85
2021/05/30 04:29:43;;;;;;;9.10;4.27;;;10.30;89.90;;;;;;4994837;28;20175;-85
2021/05/30 04:32:08;;;;;;;9.68;4.70;;;10.30;89.90;;;;;;4995686;28;20464;-85
2021/05/30 04:34:34;;;;;;;8.93;5.10;;;10.30;90.20;;;;;;4995838;28;20649;-84
2021/05/30 04:37:00;;;;;;;9.50;4.70;;;10.40;90.10;;;;;;4995427;28;20423;-85
2021/05/30 04:39:27;;;;;;;5.73;3.90;;;10.50;89.50;;;;;;4995241;28;20171;-84
2021/05/30 04:41:53;;;;;;;8.80;4.18;;;10.50;89.20;;;;;;4995295;28;20578;-85
2021/05/30 04:44:19;;;;;;;6.27;4.10;;;10.60;88.90;;;;;;4994846;28;20178;-85
2021/05/30 04:46:44;;;;;;;12.37;4.13;;;10.60;89.90;;;;;;4995422;28;20428;-85
2021/05/30 04:49:10;;;;;;;10.20;4.30;;;10.70;89.90;;;;;;4995475;28;20467;-85
2021/05/30 04:51:36;;;;;;;11.77;4.43;;;10.70;89.40;;;;;;4994382;28;20202;-85
2021/05/30 04:54:02;;;;;;;8.27;4.40;;;10.80;89.10;;;;;;4995320;28;20177;-85
2021/05/30 04:56:27;;;;;;;15.53;5.60;;;10.80;89.10;;;;;;4994231;28;20166;-84
2021/05/30 04:58:53;;;;;;;13.30;4.77;;;10.90;88.80;;;;;;4995634;28;20816;-84
2021/05/30 05:01:19;;;;;;;9.63;5.07;;;10.90;88.90;;;;;;4996651;28;20238;-84
2021/05/30 05:03:45;;;;;;;7.93;4.67;;;11.00;88.70;;;;;;4998997;28;20749;-84
2021/05/30 05:06:11;;;;;;;8.23;5.50;;;11.10;88.00;;;;;;4999412;28;20421;-84
2021/05/30 05:08:36;;;;;;;10.40;4.67;;;11.10;88.00;;;;;;4999359;28;20417;-84
2021/05/30 05:11:03;;;;;;;7.53;4.30;;;11.10;88.00;;;;;;5016815;28;20472;-84
2021/05/30 05:13:28;;;;;;;9.27;5.25;;;11.10;87.70;;;;;;4999113;28;20437;-84
2021/05/30 05:15:55;;;;;;;11.60;5.10;;;11.20;87.40;;;;;;4998966;28;20630;-84
2021/05/30 05:18:26;;;;;;;14.20;5.00;;;11.30;86.90;;;;;;4999751;28;20715;-84
2021/05/30 05:20:52;;;;;;;12.68;5.53;;;11.40;87.10;;;;;;5000568;28;20190;-82
2021/05/30 05:23:20;;;;;;;8.60;5.30;;;11.50;86.70;;;;;;5000898;28;20231;-82
2021/05/30 05:25:53;;;;;;;10.55;5.35;;;11.60;86.30;;;;;;5000851;28;20179;-83
2021/05/30 05:28:20;;;;;;;15.20;5.60;;;11.70;85.80;;;;;;5001494;28;20174;-82
2021/05/30 05:30:47;;;;;;;10.48;5.00;;;11.70;86.20;;;;;;4999748;28;20614;-82
2021/05/30 05:33:13;;;;;;;9.55;5.68;;;11.70;86.30;;;;;;5000506;28;20381;-82
2021/05/30 05:35:39;;;;;;;8.10;5.30;;;11.80;86.40;;;;;;5000873;28;20171;-82
2021/05/30 05:38:05;;;;;;;9.13;5.13;;;11.80;85.60;;;;;;5019195;28;20404;-82
2021/05/30 05:40:31;;;;;;;10.97;6.10;;;11.90;85.80;;;;;;5004174;28;20537;-83
2021/05/30 05:42:57;;;;;;;13.37;5.60;;;12.10;85.60;;;;;;5003085;28;20429;-83
2021/05/30 05:45:24;;;;;;;16.27;6.88;;;12.10;84.80;;;;;;5003655;28;20421;-82
2021/05/30 05:47:51;;;;;;;13.50;6.65;;;12.20;84.40;;;;;;5002928;28;20174;-83
2021/05/30 05:50:19;;;;;;;9.43;5.30;;;12.40;84.40;;;;;;5002082;28;20251;-83
2021/05/30 05:52:45;;;;;;;9.45;4.80;;;12.50;83.40;;;;;;5003281;28;20175;-82
2021/05/30 05:55:12;;;;;;;12.70;6.53;;;12.50;82.30;;;;;;5002522;28;20186;-82
2021/05/30 05:57:40;;;;;;;8.80;5.28;;;12.60;82.10;;;;;;5002353;28;20179;-83
2021/05/30 06:00:11;;;;;;;5.85;4.40;;;12.70;80.30;;;;;;5001773;28;20182;-82
2021/05/30 06:02:37;;;;;;;6.93;4.55;;;12.80;80.20;;;;;;5001603;28;20327;-82
2021/05/30 06:05:05;;;;;;;6.40;3.53;;;12.90;79.10;;;;;;5002736;28;20214;-82
2021/05/30 06:07:31;;;;;;;11.77;5.30;;;13.00;78.00;;;;;;5002962;28;20304;-82
2021/05/30 06:09:57;;;;;;;8.98;5.00;;;13.00;77.60;;;;;;5001666;28;20170;-82
2021/05/30 06:12:22;;;;;;;9.93;5.40;;;13.10;77.30;;;;;;5000966;28;20701;-82
2021/05/30 06:14:48;;;;;;;7.80;3.93;;;13.20;77.00;;;;;;5000044;28;20167;-81
2021/05/30 06:17:14;;;;;;;10.83;5.07;;;13.30;76.70;;;;;;5001545;28;20167;-82
2021/05/30 06:19:40;;;;;;;6.90;4.30;;;13.40;75.30;;;;;;5001516;28;20410;-81
2021/05/30 06:22:07;;;;;;;4.95;3.33;;;13.60;74.50;;;;;;5001425;28;20528;-83
2021/05/30 06:24:34;;;;;;;8.30;4.68;;;13.60;74.50;;;;;;5001952;28;20179;-82
2021/05/30 06:27:03;;;;;;;9.75;4.78;;;13.80;74.20;;;;;;5001035;28;20179;-83
2021/05/30 06:29:29;;;;;;;7.75;4.32;;;14.00;73.90;;;;;;5002036;28;20239;-82
2021/05/30 06:31:55;;;;;;;7.10;3.97;;;14.20;73.30;;;;;;5003319;28;20203;-83
2021/05/30 06:34:21;;;;;;;6.93;4.00;;;14.40;72.30;;;;;;5002964;28;20193;-82
2021/05/30 06:36:49;;;;;;;6.03;3.80;;;14.50;71.70;;;;;;5003554;28;20409;-82
2021/05/30 06:39:16;;;;;;;7.60;4.20;;;14.70;70.80;;;;;;5001151;28;20194;-84
2021/05/30 06:41:43;;;;;;;10.73;3.90;;;14.80;69.90;;;;;;5000329;28;20229;-86
2021/05/30 06:44:09;;;;;;;9.60;4.10;;;14.90;69.80;;;;;;4998539;28;20312;-85
2021/05/30 06:46:35;;;;;;;6.72;3.97;;;15.10;69.50;;;;;;4998458;28;20202;-85
2021/05/30 06:49:02;;;;;;;9.50;4.88;;;15.30;68.70;;;;;;4997137;28;20175;-85
2021/05/30 06:51:31;;;;;;;6.97;3.70;;;15.40;67.60;;;;;;4998359;28;20251;-85
2021/05/30 06:53:59;;;;;;;7.32;3.97;;;15.60;67.30;;;;;;4997759;28;20179;-85
2021/05/30 06:56:25;;;;;;;6.18;3.60;;;15.70;67.00;;;;;;4998272;28;20170;-85
2021/05/30 06:58:51;;;;;;;5.25;3.20;;;15.90;65.90;;;;;;4998696;28;20205;-85
2021/05/30 07:01:19;;;;;;;9.83;4.10;;;16.20;65.60;;;;;;4998251;28;20202;-85
2021/05/30 07:03:46;;;;;;;9.70;3.40;;;16.30;64.10;;;;;;4998474;28;20421;-85
2021/05/30 07:06:12;;;;;;;6.32;3.88;;;16.40;63.90;;;;;;4998196;28;20182;-85
2021/05/30 07:08:37;;;;;;;5.23;3.57;;;16.60;63.80;;;;;;4997593;28;20186;-85
2021/05/30 07:11:03;;;;;;;10.80;3.93;;;16.70;62.70;;;;;;4998106;28;20594;-83
2021/05/30 07:13:29;;;;;;;6.37;4.13;;;16.80;62.70;;;;;;4998833;28;20190;-84
2021/05/30 07:15:59;;;;;;;5.10;4.10;;;17.00;63.40;;;;;;5002157;28;20904;-84
2021/05/30 07:18:25;;;;;;;8.80;4.50;;;17.00;62.70;;;;;;5000164;28;20808;-84
2021/05/30 07:20:53;;;;;;;5.22;4.03;;;17.00;61.40;;;;;;4999970;28;20202;-84
2021/05/30 07:23:20;;;;;;;6.75;4.03;;;17.10;62.70;;;;;;4999324;28;20265;-84
2021/05/30 07:25:47;;;;;;;5.80;3.28;;;17.20;60.10;;;;;;4998903;28;20186;-84
2021/05/30 07:28:13;;;;;;;5.32;3.65;;;17.30;60.80;;;;;;4998542;28;20181;-85
2021/05/30 07:30:39;;;;;;;6.53;4.23;;;17.50;59.80;;;;;;4999065;28;20198;-84
2021/05/30 07:33:05;;;;;;;8.03;4.03;;;17.60;58.40;;;;;;4999300;28;20440;-85
2021/05/30 07:35:31;;;;;;;6.72;3.30;;;17.80;58.50;;;;;;4998848;28;20428;-85
2021/05/30 07:37:58;;;;;;;6.63;4.30;;;18.00;58.10;;;;;;4999471;28;20170;-85
2021/05/30 07:40:25;;;;;;;8.13;4.10;;;18.00;57.60;;;;;;4998353;28;20170;-85
2021/05/30 07:42:50;;;;;;;5.45;3.20;;;18.20;57.60;;;;;;4999021;28;20585;-84
2021/05/30 07:45:18;;;;;;;6.50;3.83;;;18.40;56.60;;;;;;5001035;28;20179;-84
2021/05/30 07:47:44;;;;;;;12.45;3.70;;;18.40;57.90;;;;;;4998835;28;20756;-84
2021/05/30 07:50:11;;;;;;;7.63;3.20;;;18.50;56.40;;;;;;4998078;28;20209;-84
2021/05/30 07:52:38;;;;;;;6.82;3.70;;;18.70;54.90;;;;;;4997901;28;20190;-85
2021/05/30 07:55:05;;;;;;;4.35;3.35;;;18.80;54.20;;;;;;4998937;28;20177;-84
2021/05/30 07:57:31;;;;;;;5.40;3.40;;;18.90;53.90;;;;;;4996644;28;20170;-84
2021/05/30 07:59:57;;;;;;;4.27;2.83;;;19.00;53.30;;;;;;4997205;28;20199;-84
2021/05/30 08:02:23;;;;;;;5.70;3.40;;;19.00;53.00;;;;;;4997245;28;20421;-84
2021/05/30 08:04:49;;;;;;;5.60;3.70;;;19.10;52.00;;;;;;4996671;28;20474;-84
2021/05/30 08:07:16;;;;;;;4.30;2.80;;;19.20;51.20;;;;;;4996946;28;20167;-84
2021/05/30 08:09:41;;;;;;;7.95;3.13;;;19.30;52.40;;;;;;4995470;28;20481;-84
2021/05/30 08:12:08;;;;;;;15.50;3.60;;;19.40;50.90;;;;;;4994880;28;20693;-85
2021/05/30 08:14:35;;;;;;;7.05;3.30;;;19.60;49.50;;;;;;4995618;28;20774;-84
2021/05/30 08:17:02;;;;;;;6.63;2.72;;;19.60;49.40;;;;;;4998695;28;20229;-84
2021/05/30 08:19:28;;;;;;;5.57;3.53;;;19.70;49.60;;;;;;4996152;28;20181;-84
2021/05/30 08:21:54;;;;;;;4.73;3.30;;;19.80;49.40;;;;;;4995386;28;20198;-84
2021/05/30 08:24:20;;;;;;;6.00;2.77;;;20.00;47.50;;;;;;4994855;28;20422;-84
2021/05/30 08:26:46;;;;;;;5.67;2.80;;;20.10;47.30;;;;;;4994625;28;20413;-84
2021/05/30 08:29:12;;;;;;;3.73;3.30;;;20.20;47.50;;;;;;4995145;28;20520;-84
2021/05/30 08:31:37;;;;;;;3.53;2.83;;;20.50;47.30;;;;;;4996379;28;20461;-84
2021/05/30 08:34:03;;;;;;;4.77;2.97;;;20.70;45.80;;;;;;4995804;28;20194;-84
2021/05/30 08:36:29;;;;;;;4.40;2.43;;;20.70;44.10;;;;;;4996181;28;20177;-84
2021/05/30 08:38:55;;;;;;;5.77;2.70;;;20.70;45.20;;;;;;4994758;28;20630;-85
2021/05/30 08:41:21;;;;;;;3.40;2.43;;;20.70;44.10;;;;;;4994701;28;20469;-84
2021/05/30 08:43:47;;;;;;;5.43;2.75;;;20.60;43.10;;;;;;4979806;28;20207;-84
2021/05/30 08:46:13;;;;;;;9.93;2.97;;;20.70;44.50;;;;;;4976867;28;20546;-85
2021/05/30 08:48:39;;;;;;;4.95;2.72;;;20.90;44.00;;;;;;4975397;28;20175;-85
2021/05/30 08:51:05;;;;;;;8.60;3.47;;;21.00;42.70;;;;;;4974908;28;20203;-85
2021/05/30 08:53:37;;;;;;;5.03;2.80;;;21.00;43.50;;;;;;4974698;28;20175;-85
2021/05/30 08:56:04;;;;;;;6.03;2.50;;;21.10;42.60;;;;;;4975369;28;20172;-85
2021/05/30 08:58:38;;;;;;;10.68;3.10;;;21.10;43.10;;;;;;4976416;28;20175;-84
2021/05/30 09:01:08;;;;;;;6.18;2.60;;;21.10;40.70;;;;;;4975393;28;20251;-85
2021/05/30 09:04:07;;;;;;;3.70;2.92;;;21.20;41.40;;;;;;4974780;28;20691;-85
2021/05/30 09:06:35;;;;;;;4.28;2.22;;;21.40;40.80;;;;;;4974738;28;20168;-85
2021/05/30 09:09:02;;;;;;;4.90;2.88;;;21.60;41.50;;;;;;4975988;28;20179;-86
2021/05/30 09:11:48;;;;;;;4.50;2.88;;;21.70;43.10;;;;;;4974297;28;20582;-85
2021/05/30 09:14:22;;;;;;;9.00;3.03;;;21.90;41.90;;;;;;4977722;28;20572;-87
2021/05/30 09:16:54;;;;;;;6.10;3.10;;;22.00;42.80;;;;;;4978087;28;20287;-88
2021/05/30 09:19:44;;;;;;;9.60;3.45;;;22.40;41.00;;;;;;4977337;28;20171;-88
2021/05/30 09:22:25;;;;;;;3.58;2.80;;;22.60;41.10;;;;;;4977965;28;20264;-87
2021/05/30 09:24:51;;;;;;;4.45;2.50;;;22.70;42.20;;;;;;4998398;28;20650;-88
2021/05/30 09:27:21;;;;;;;5.10;3.20;;;22.60;42.70;;;;;;4995577;28;20171;-87
2021/05/30 09:30:15;;;;;;;4.65;2.55;;;22.80;41.00;;;;;;4980378;28;20258;-85
2021/05/30 09:33:07;;;;;;;8.50;3.00;;;22.80;40.80;;;;;;4980354;28;20556;-84
2021/05/30 09:35:48;;;;;;;3.70;2.55;;;22.90;39.80;;;;;;4982818;28;20159;-84
2021/05/30 09:38:20;;;;;;;4.60;2.95;;;22.80;39.90;;;;;;4981788;28;20159;-84
2021/05/30 09:40:57;;;;;;;3.53;2.45;;;23.00;40.30;;;;;;4981508;28;20214;-84
2021/05/30 09:43:24;;;;;;;7.25;2.60;;;22.70;39.00;;;;;;4982078;28;20229;-84
2021/05/30 09:46:09;;;;;;;5.10;2.58;;;22.70;37.70;;;;;;4980927;28;20179;-83
2021/05/30 09:48:40;;;;;;;4.47;2.72;;;22.60;37.30;;;;;;4980530;28;20170;-84
2021/05/30 09:51:26;;;;;;;3.85;2.35;;;22.30;38.90;;;;;;4979343;28;20203;-84
2021/05/30 09:53:55;;;;;;;3.53;2.67;;;22.50;39.80;;;;;;4996039;28;20186;-84
2021/05/30 09:56:44;;;;;;;3.22;2.72;;;22.70;38.80;;;;;;4979401;28;20871;-82
2021/05/30 09:59:18;;;;;;;2.80;2.28;;;22.70;40.70;;;;;;4978465;28;20206;-84
2021/05/30 10:01:52;;;;;;;4.30;3.10;;;22.60;40.30;;;;;;4977242;28;20206;-84
2021/05/30 10:04:19;;;;;;;4.28;2.83;;;22.80;39.80;;;;;;4978654;28;20170;-84
2021/05/30 10:06:45;;;;;;;3.90;2.85;;;23.00;41.20;;;;;;4977705;28;20183;-84
2021/05/30 10:09:12;;;;;;;6.07;3.05;;;23.00;38.40;;;;;;4979043;28;20228;-84
2021/05/30 10:11:39;;;;;;;5.53;3.17;;;22.70;39.10;;;;;;4977332;28;20237;-84
2021/05/30 10:14:05;;;;;;;5.13;2.90;;;22.10;40.10;;;;;;4978864;28;20170;-84
2021/05/30 10:16:33;;;;;;;9.27;2.80;;;22.10;41.90;;;;;;4979799;28;20179;-84
2021/05/30 10:19:38;;;;;;;4.18;2.70;;;22.50;42.20;;;;;;4978890;28;20172;-84
2021/05/30 10:22:05;;;;;;;3.95;2.58;;;23.00;40.20;;;;;;4978915;28;20203;-84
2021/05/30 10:24:31;;;;;;;4.75;2.70;;;23.10;39.90;;;;;;4978061;28;20183;-84
2021/05/30 10:27:24;;;;;;;4.97;2.85;;;22.70;38.20;;;;;;4977516;28;20180;-83
2021/05/30 10:32:35;;;;;;;4.35;3.38;;;22.40;39.90;;;;;;4996994;28;20202;-83
2021/05/30 10:35:16;;;;;;;3.65;2.90;;;22.20;40.30;;;;;;4979166;28;20690;-83
2021/05/30 10:37:46;;;;;;;5.28;3.05;;;22.10;39.90;;;;;;4978130;28;20188;-82
2021/05/30 10:40:21;;;;;;;6.95;3.13;;;22.20;41.50;;;;;;4977020;28;20266;-84
2021/05/30 10:43:10;;;;;;;4.00;2.22;;;22.30;39.50;;;;;;4977299;28;20166;-83
2021/05/30 10:45:58;;;;;;;4.95;2.60;;;22.40;40.10;;;;;;4993044;28;20555;-84
2021/05/30 10:48:24;;;;;;;3.50;3.15;;;22.80;40.70;;;;;;4976673;28;20209;-84
2021/05/30 10:51:00;;;;;;;6.40;3.65;;;23.10;40.20;;;;;;4977133;28;20211;-83
2021/05/30 10:53:38;;;;;;;5.20;3.47;;;23.40;36.50;;;;;;4977189;28;20266;-83
2021/05/30 10:56:28;;;;;;;16.13;7.45;;;23.10;35.90;;;;;;4976586;28;20232;-84
2021/05/30 10:59:06;;;;;;;5.97;3.92;;;22.60;37.70;;;;;;4976874;28;20225;-84
2021/05/30 11:01:35;;;;;;;4.13;2.90;;;22.40;38.00;;;;;;4976552;28;20195;-84
2021/05/30 11:04:22;;;;;;;4.90;3.00;;;22.50;37.30;;;;;;4977162;28;20663;-85
2021/05/30 11:06:52;;;;;;;3.97;2.65;;;22.80;37.30;;;;;;4977962;28;20175;-84
2021/05/30 11:09:18;;;;;;;5.05;3.42;;;23.10;38.50;;;;;;4976677;28;20175;-84
2021/05/30 11:11:44;;;;;;;5.00;3.30;;;23.60;38.20;;;;;;4976719;28;20218;-84
2021/05/30 11:14:12;;;;;;;4.95;2.70;;;24.10;35.00;;;;;;4978517;28;20399;-87
2021/05/30 11:16:48;;;;;;;5.13;3.63;;;24.40;34.40;;;;;;4977282;28;20531;-87
2021/05/30 11:19:15;;;;;;;8.48;2.22;;;24.40;33.20;;;;;;4976916;28;20533;-86
2021/05/30 11:21:44;;;;;;;4.72;3.13;;;24.20;32.60;;;;;;4977898;28;20191;-84
2021/05/30 11:24:15;;;;;;;6.07;2.92;;;24.30;35.00;;;;;;4977126;28;20187;-87
2021/05/30 11:27:11;;;;;;;5.93;2.70;;;24.60;35.10;;;;;;4977286;28;20183;-85
2021/05/30 11:29:37;;;;;;;3.85;3.10;;;24.60;33.10;;;;;;4977094;28;20584;-86
2021/05/30 11:32:04;;;;;;;3.80;2.60;;;24.60;33.40;;;;;;4977868;28;20214;-86
2021/05/30 11:34:34;;;;;;;6.82;2.97;;;24.80;34.80;;;;;;4977747;28;20262;-86
2021/05/30 11:37:10;;;;;;;4.68;2.65;;;25.00;33.80;;;;;;4976991;28;20210;-87
2021/05/30 11:39:40;;;;;;;6.90;3.25;;;25.20;33.10;;;;;;4976811;28;20170;-85
2021/05/30 11:42:06;;;;;;;9.05;2.80;;;25.30;34.20;;;;;;4976658;28;20195;-86
2021/05/30 11:44:32;;;;;;;14.60;3.30;;;25.40;31.20;;;;;;4976167;28;20553;-87
2021/05/30 11:47:04;;;;;;;6.15;3.40;;;25.60;32.20;;;;;;4977150;28;20186;-86
2021/05/30 11:49:38;;;;;;;5.30;2.40;;;25.80;32.20;;;;;;4976941;28;20579;-85
2021/05/30 11:52:07;;;;;;;7.68;2.80;;;26.10;30.90;;;;;;4976618;28;20642;-87
2021/05/30 11:54:49;;;;;;;3.92;2.80;;;26.20;31.00;;;;;;4976503;28;20179;-87
2021/05/30 11:57:18;;;;;;;6.88;2.70;;;25.90;31.20;;;;;;4976056;28;20167;-86
2021/05/30 11:59:58;;;;;;;4.60;2.60;;;26.10;32.10;;;;;;4976290;28;20176;-86
2021/05/30 12:02:38;;;;;;;4.68;2.65;;;26.10;28.70;;;;;;4976367;28;20683;-87
2021/05/30 12:05:07;;;;;;;3.92;2.83;;;25.70;29.60;;;;;;4976518;28;20171;-87
2021/05/30 12:07:34;;;;;;;4.82;3.03;;;25.60;29.50;;;;;;4976348;28;20225;-86
2021/05/30 12:10:02;;;;;;;6.28;2.85;;;25.60;32.20;;;;;;4975621;28;20171;-86
2021/05/30 12:12:30;;;;;;;5.80;2.35;;;25.80;33.80;;;;;;4976164;28;20716;-87
2021/05/30 12:15:06;;;;;;;7.60;2.67;;;26.10;31.50;;;;;;4976313;28;20171;-87
2021/05/30 12:17:32;;;;;;;3.90;2.70;;;25.70;29.80;;;;;;4976560;28;20523;-87
2021/05/30 12:19:58;;;;;;;5.57;3.03;;;25.50;31.00;;;;;;4975712;28;20167;-87
2021/05/30 12:22:30;;;;;;;4.30;2.73;;;25.50;32.20;;;;;;4976206;28;20191;-87
2021/05/30 12:24:57;;;;;;;2.95;2.60;;;25.70;32.50;;;;;;4975758;28;20409;-86
2021/05/30 12:27:25;;;;;;;3.33;2.40;;;26.00;30.80;;;;;;4975592;28;20178;-87
2021/05/30 12:29:52;;;;;;;4.30;3.00;;;26.30;31.00;;;;;;4975321;28;20176;-86
2021/05/30 12:32:20;;;;;;;4.38;2.63;;;26.30;29.90;;;;;;4975245;28;20237;-87
2021/05/30 12:34:46;;;;;;;4.00;2.75;;;26.60;29.70;;;;;;4975300;28;20168;-86
2021/05/30 12:37:13;;;;;;;3.15;2.30;;;26.80;29.00;;;;;;4975735;28;20221;-86
2021/05/30 12:39:39;;;;;;;5.35;2.83;;;27.00;29.70;;;;;;4975780;28;20180;-86
2021/05/30 12:42:15;;;;;;;3.83;2.55;;;26.40;28.90;;;;;;4975425;28;20205;-85
2021/05/30 12:44:51;;;;;;;4.57;2.65;;;26.50;29.00;;;;;;4975433;28;20163;-87
2021/05/30 12:47:21;;;;;;;3.28;2.38;;;26.20;28.30;;;;;;4975286;28;20182;-87
2021/05/30 12:50:02;;;;;;;3.90;2.55;;;25.70;29.10;;;;;;4976004;28;20186;-86
2021/05/30 12:52:51;;;;;;;3.95;2.45;;;25.80;29.70;;;;;;4976206;28;20249;-87
2021/05/30 12:55:21;;;;;;;3.42;2.25;;;26.20;32.60;;;;;;4975777;28;20160;-86
2021/05/30 12:57:56;;;;;;;3.88;2.90;;;26.40;29.70;;;;;;4975693;28;20164;-88